Time,TemperatureF,DewpointF,PressureIn,WindDirection,WindDirectionDegrees,WindSpeedMPH,WindSpeedGustMPH,Humidity,HourlyPrecipIn,Conditions,Clouds,dailyrainin,SolarRadiationWatts/m^2,SoftwareType,DateUTC
2013-12-20 00:00:00,46.7,44.2,29.79,NE,56,0.0,0.0,91,0.00,RA,,0.00,0.0,WeatherDisplay:10.37,2013-12-20 08:00:00,
2013-12-20 00:05:00,46.6,44.1,29.79,NE,56,0.0,0.0,91,0.00,RA,,0.00,0.0,WeatherDisplay:10.37,2013-12-20 08:05:00,
2013-12-20 00:10:00,46.5,44.0,29.78,NE,56,0.0,0.0,91,0.00,RA,,0.00,0.0,WeatherDisplay:10.37,2013-12-20 08:10:00,
2013-12-20 00:15:00,46.3,43.8,29.78,NE,56,0.0,0.0,91,0.00,CLR,,0.00,0.0,WeatherDisplay:10.37,2013-12-20 08:15:00,
2013-12-20 00:20:00,46.0,43.5,29.78,NE,55,0.0,0.0,91,0.00,CLR,,0.00,0.0,WeatherDisplay:10.37,2013-12-20 08:20:00,
2013-12-20 00:25:00,46.0,43.5,29.79,NE,56,0.0,0.0,91,0.00,CLR,,0.00,0.0,WeatherDisplay:10.37,2013-12-20 08:25:00,
2013-12-20 00:30:00,45.9,43.4,29.79,NE,55,0.0,0.0,91,0.00,CLR,,0.00,0.0,WeatherDisplay:10.37,2013-12-20 08:30:00,
2013-12-20 00:35:00,45.8,43.3,29.79,NE,56,0.0,0.0,91,0.00,CLR,,0.00,0.0,WeatherDisplay:10.37,2013-12-20 08:35:00,
2013-12-20 00:40:00,45.8,43.3,29.78,NE,56,0.0,0.0,91,0.00,CLR,,0.00,0.0,WeatherDisplay:10.37,2013-12-20 08:40:00,
2013-12-20 00:45:00,45.9,43.7,29.78,NE,56,0.0,0.0,92,0.00,CLR,,0.00,0.0,WeatherDisplay:10.37,2013-12-20 08:45:00,
2013-12-20 00:50:00,45.8,43.3,29.78,NE,56,0.0,0.0,91,0.00,CLR,,0.00,0.0,WeatherDisplay:10.37,2013-12-20 08:50:00,
2013-12-20 00:55:00,45.7,43.2,29.78,NE,56,0.0,0.0,91,0.00,CLR,,0.00,0.0,WeatherDisplay:10.37,2013-12-20 08:55:00,
2013-12-20 01:00:00,45.6,43.4,29.78,NE,56,0.0,0.0,92,0.00,CLR,,0.00,0.0,WeatherDisplay:10.37,2013-12-20 09:00:00,
2013-12-20 01:05:00,45.4,42.9,29.78,NE,56,1.0,1.0,91,0.00,CLR,,0.00,0.0,WeatherDisplay:10.37,2013-12-20 09:05:00,
2013-12-20 01:10:00,45.2,42.7,29.78,NE,56,1.2,1.2,91,0.00,CLR,,0.00,0.0,WeatherDisplay:10.37,2013-12-20 09:10:00,
2013-12-20 01:15:00,45.1,42.9,29.78,NE,56,1.0,1.0,92,0.00,CLR,,0.00,0.0,WeatherDisplay:10.37,2013-12-20 09:15:00,
2013-12-20 01:20:00,45.0,42.8,29.78,NE,56,0.0,0.0,92,0.00,CLR,,0.00,0.0,WeatherDisplay:10.37,2013-12-20 09:20:00,
2013-12-20 01:25:00,44.9,42.4,29.78,NE,55,0.0,0.0,91,0.00,CLR,,0.00,0.0,WeatherDisplay:10.37,2013-12-20 09:25:00,
2013-12-20 01:30:00,44.8,42.6,29.78,NE,56,0.0,0.0,92,0.00,CLR,,0.00,0.0,WeatherDisplay:10.37,2013-12-20 09:30:00,
2013-12-20 01:35:00,44.6,42.4,29.79,NE,55,0.0,0.0,92,0.00,CLR,,0.00,0.0,WeatherDisplay:10.37,2013-12-20 09:35:00,
2013-12-20 01:40:00,44.5,42.3,29.79,NE,56,1.2,1.2,92,0.00,CLR,,0.00,0.0,WeatherDisplay:10.37,2013-12-20 09:40:00,
2013-12-20 01:45:00,44.6,42.4,29.79,NE,56,1.2,1.2,92,0.00,CLR,,0.00,0.0,WeatherDisplay:10.37,2013-12-20 09:45:00,
2013-12-20 01:50:00,44.6,42.4,29.79,NE,56,0.0,0.0,92,0.00,CLR,,0.00,0.0,WeatherDisplay:10.37,2013-12-20 09:50:00,
2013-12-20 01:55:00,44.5,42.3,29.79,NE,56,0.0,0.1,92,0.00,CLR,,0.00,0.0,WeatherDisplay:10.37,2013-12-20 09:55:00,
2013-12-20 02:00:00,44.4,42.2,29.78,NE,55,0.0,0.0,92,0.00,CLR,,0.00,0.0,WeatherDisplay:10.37,2013-12-20 10:00:00,
2013-12-20 02:05:00,44.3,42.1,29.78,NE,56,0.0,0.0,92,0.00,CLR,,0.00,0.0,WeatherDisplay:10.37,2013-12-20 10:05:00,
2013-12-20 02:10:00,44.3,42.1,29.78,NE,56,2.3,0.0,92,0.00,CLR,,0.00,0.0,WeatherDisplay:10.37,2013-12-20 10:10:00,
2013-12-20 02:15:00,44.2,42.0,29.78,NE,56,1.2,1.2,92,0.00,CLR,,0.00,0.0,WeatherDisplay:10.37,2013-12-20 10:15:00,
2013-12-20 02:20:00,44.2,42.3,29.78,NE,56,1.0,0.0,93,0.00,CLR,,0.00,0.0,WeatherDisplay:10.37,2013-12-20 10:20:00,
2013-12-20 02:25:00,44.1,42.2,29.78,NE,56,1.2,1.2,93,0.00,CLR,,0.00,0.0,WeatherDisplay:10.37,2013-12-20 10:25:00,
2013-12-20 02:30:00,44.0,42.1,29.78,NE,56,2.3,2.3,93,0.00,CLR,,0.00,0.0,WeatherDisplay:10.37,2013-12-20 10:30:00,
2013-12-20 02:35:00,44.0,42.1,29.78,NE,55,2.3,2.3,93,0.00,CLR,,0.00,0.0,WeatherDisplay:10.37,2013-12-20 10:35:00,
2013-12-20 02:40:00,44.1,42.2,29.78,NE,56,1.2,1.2,93,0.00,CLR,,0.00,0.0,WeatherDisplay:10.37,2013-12-20 10:40:00,
2013-12-20 02:45:00,44.2,42.3,29.78,NE,56,1.2,1.2,93,0.00,CLR,,0.00,0.0,WeatherDisplay:10.37,2013-12-20 10:45:00,
2013-12-20 02:50:00,44.2,42.3,29.78,NE,55,1.2,0.0,93,0.00,CLR,,0.00,0.0,WeatherDisplay:10.37,2013-12-20 10:50:00,
2013-12-20 02:55:00,44.3,42.4,29.78,NE,56,1.2,1.2,93,0.00,CLR,,0.00,0.0,WeatherDisplay:10.37,2013-12-20 10:55:00,
2013-12-20 03:00:00,44.3,42.4,29.78,NE,56,0.0,0.0,93,0.00,CLR,,0.00,0.0,WeatherDisplay:10.37,2013-12-20 11:00:00,
2013-12-20 03:05:00,44.4,42.5,29.78,NE,56,0.0,0.0,93,0.00,CLR,,0.00,0.0,WeatherDisplay:10.37,2013-12-20 11:05:00,
2013-12-20 03:10:00,44.4,42.5,29.78,NE,56,0.0,0.0,93,0.00,CLR,,0.00,0.0,WeatherDisplay:10.37,2013-12-20 11:10:00,
2013-12-20 03:15:00,44.3,42.4,29.78,NE,56,0.0,0.0,93,0.00,CLR,,0.00,0.0,WeatherDisplay:10.37,2013-12-20 11:15:00,
2013-12-20 03:20:00,44.3,42.4,29.78,NE,56,0.0,0.0,93,0.00,CLR,,0.00,0.0,WeatherDisplay:10.37,2013-12-20 11:20:00,
2013-12-20 03:25:00,44.1,42.2,29.77,NE,56,1.2,1.2,93,0.00,CLR,,0.00,0.0,WeatherDisplay:10.37,2013-12-20 11:25:00,
2013-12-20 03:30:00,43.9,41.7,29.77,NE,56,0.0,0.0,92,0.00,CLR,,0.00,0.0,WeatherDisplay:10.37,2013-12-20 11:30:00,
2013-12-20 03:35:00,43.8,41.9,29.77,NE,56,0.0,0.0,93,0.00,CLR,,0.00,0.0,WeatherDisplay:10.37,2013-12-20 11:35:00,
2013-12-20 03:40:00,43.7,41.8,29.77,NE,56,1.2,0.0,93,0.00,CLR,,0.00,0.0,WeatherDisplay:10.37,2013-12-20 11:40:00,
2013-12-20 03:45:00,43.7,41.8,29.77,NE,56,0.0,0.0,93,0.00,CLR,,0.00,0.0,WeatherDisplay:10.37,2013-12-20 11:45:00,
2013-12-20 03:50:00,43.8,41.9,29.77,NE,56,1.2,1.2,93,0.00,CLR,,0.00,0.0,WeatherDisplay:10.37,2013-12-20 11:50:00,
2013-12-20 03:55:00,43.7,41.8,29.78,NE,56,0.0,0.0,93,0.00,CLR,,0.00,0.0,WeatherDisplay:10.37,2013-12-20 11:55:00,
2013-12-20 04:00:00,43.8,41.9,29.77,NE,56,3.5,3.5,93,0.00,CLR,,0.00,0.0,WeatherDisplay:10.37,2013-12-20 12:00:00,
2013-12-20 04:05:00,43.8,41.9,29.77,NE,56,3.5,3.5,93,0.00,CLR,,0.00,0.0,WeatherDisplay:10.37,2013-12-20 12:05:00,
2013-12-20 04:10:00,43.9,42.0,29.78,NE,56,1.2,1.2,93,0.01,RA,,0.01,0.0,WeatherDisplay:10.37,2013-12-20 12:10:00,
2013-12-20 04:15:00,43.7,41.8,29.78,NE,55,1.2,0.0,93,0.01,RA,,0.01,0.0,WeatherDisplay:10.37,2013-12-20 12:15:00,
2013-12-20 04:20:00,43.6,41.7,29.77,NE,56,0.0,0.0,93,0.01,RA,,0.01,0.0,WeatherDisplay:10.37,2013-12-20 12:20:00,
2013-12-20 04:25:00,43.3,41.4,29.78,NE,55,2.0,2.0,93,0.01,CLR,,0.01,0.0,WeatherDisplay:10.37,2013-12-20 12:25:00,
2013-12-20 04:30:00,43.3,41.4,29.78,NE,55,1.2,1.2,93,0.01,CLR,,0.01,0.0,WeatherDisplay:10.37,2013-12-20 12:30:00,
2013-12-20 04:35:00,43.3,41.4,29.78,NE,56,0.0,0.0,93,0.01,CLR,,0.01,0.0,WeatherDisplay:10.37,2013-12-20 12:35:00,
2013-12-20 04:40:00,43.2,41.3,29.78,NE,56,0.0,0.0,93,0.01,CLR,,0.01,0.0,WeatherDisplay:10.37,2013-12-20 12:40:00,
2013-12-20 04:45:00,43.1,41.2,29.77,NE,56,0.0,0.0,93,0.01,CLR,,0.01,0.0,WeatherDisplay:10.37,2013-12-20 12:45:00,
2013-12-20 04:50:00,43.0,41.1,29.78,NE,56,1.2,0.0,93,0.01,CLR,,0.01,0.0,WeatherDisplay:10.37,2013-12-20 12:50:00,
2013-12-20 04:55:00,42.7,40.8,29.78,NE,56,0.0,0.0,93,0.01,CLR,,0.01,0.0,WeatherDisplay:10.37,2013-12-20 12:55:00,
2013-12-20 05:00:00,42.6,40.7,29.78,NE,55,0.0,0.0,93,0.01,CLR,,0.01,0.0,WeatherDisplay:10.37,2013-12-20 13:00:00,
2013-12-20 05:05:00,42.6,40.7,29.78,NE,55,0.0,0.0,93,0.01,CLR,,0.01,0.0,WeatherDisplay:10.37,2013-12-20 13:05:00,
2013-12-20 05:10:00,42.5,40.6,29.78,NE,55,0.0,0.0,93,0.00,CLR,,0.01,0.0,WeatherDisplay:10.37,2013-12-20 13:10:00,
2013-12-20 05:15:00,42.4,40.5,29.78,NE,56,0.0,0.0,93,0.00,CLR,,0.01,0.0,WeatherDisplay:10.37,2013-12-20 13:15:00,
2013-12-20 05:20:00,42.4,40.5,29.78,NE,55,0.0,0.0,93,0.00,CLR,,0.01,0.0,WeatherDisplay:10.37,2013-12-20 13:20:00,
2013-12-20 05:25:00,42.3,40.4,29.78,NE,56,1.2,1.2,93,0.00,CLR,,0.01,0.0,WeatherDisplay:10.37,2013-12-20 13:25:00,
2013-12-20 05:30:00,42.1,40.2,29.79,NE,56,0.0,0.0,93,0.00,CLR,,0.01,0.0,WeatherDisplay:10.37,2013-12-20 13:30:00,
2013-12-20 05:35:00,41.9,40.0,29.79,NE,56,0.0,0.0,93,0.00,CLR,,0.01,0.0,WeatherDisplay:10.37,2013-12-20 13:35:00,
2013-12-20 05:40:00,41.8,39.9,29.79,NE,55,0.0,0.0,93,0.00,CLR,,0.01,0.0,WeatherDisplay:10.37,2013-12-20 13:40:00,
2013-12-20 05:45:00,41.6,39.7,29.79,NE,56,0.0,0.0,93,0.00,CLR,,0.01,0.0,WeatherDisplay:10.37,2013-12-20 13:45:00,
2013-12-20 05:50:00,41.6,39.7,29.79,NE,56,0.0,0.0,93,0.00,CLR,,0.01,0.0,WeatherDisplay:10.37,2013-12-20 13:50:00,
2013-12-20 05:55:00,41.5,39.6,29.79,NE,56,0.0,0.0,93,0.00,CLR,,0.01,0.0,WeatherDisplay:10.37,2013-12-20 13:55:00,
2013-12-20 06:00:00,41.4,39.5,29.80,NE,56,0.0,0.0,93,0.00,CLR,,0.01,0.0,WeatherDisplay:10.37,2013-12-20 14:00:00,
2013-12-20 06:05:00,41.8,40.2,29.80,NE,56,0.0,0.0,94,0.00,CLR,,0.01,0.0,WeatherDisplay:10.37,2013-12-20 14:05:00,
2013-12-20 06:10:00,42.2,40.6,29.81,NE,56,0.0,0.0,94,0.00,CLR,,0.01,0.0,WeatherDisplay:10.37,2013-12-20 14:10:00,
2013-12-20 06:15:00,42.3,40.7,29.81,NE,55,2.3,2.3,94,0.00,CLR,,0.01,0.0,WeatherDisplay:10.37,2013-12-20 14:15:00,
2013-12-20 06:20:00,42.2,40.6,29.81,NE,56,0.0,0.0,94,0.00,CLR,,0.01,0.0,WeatherDisplay:10.37,2013-12-20 14:20:00,
2013-12-20 06:25:00,42.1,40.5,29.81,NE,56,0.0,0.0,94,0.00,CLR,,0.01,0.0,WeatherDisplay:10.37,2013-12-20 14:25:00,
2013-12-20 06:30:00,42.2,40.6,29.82,NE,56,0.0,0.0,94,0.00,CLR,,0.01,0.0,WeatherDisplay:10.37,2013-12-20 14:30:00,
2013-12-20 06:35:00,42.0,40.1,29.82,NE,56,1.2,0.0,93,0.00,CLR,,0.01,0.0,WeatherDisplay:10.37,2013-12-20 14:35:00,
2013-12-20 06:41:00,41.9,40.0,29.83,NE,56,1.2,0.0,93,0.00,CLR,,0.01,0.0,WeatherDisplay:10.37,2013-12-20 14:41:00,
2013-12-20 06:46:00,41.9,40.3,29.83,NE,56,0.0,0.0,94,0.00,CLR,,0.01,0.0,WeatherDisplay:10.37,2013-12-20 14:46:00,
2013-12-20 06:51:00,41.9,40.3,29.83,NE,56,1.2,1.2,94,0.00,CLR,,0.01,0.0,WeatherDisplay:10.37,2013-12-20 14:51:00,
2013-12-20 06:56:00,41.9,40.3,29.83,NE,56,0.0,0.0,94,0.00,CLR,,0.01,5.0,WeatherDisplay:10.37,2013-12-20 14:56:00,
2013-12-20 07:01:00,41.8,40.2,29.83,NE,56,1.2,0.0,94,0.00,SCT,,0.01,7.0,WeatherDisplay:10.37,2013-12-20 15:01:00,
2013-12-20 07:06:00,41.5,39.9,29.83,NE,56,2.0,2.0,94,0.00,SCT,,0.01,11.0,WeatherDisplay:10.37,2013-12-20 15:06:00,
2013-12-20 07:11:00,41.4,39.8,29.83,NE,56,1.0,1.0,94,0.00,BKN,,0.01,14.0,WeatherDisplay:10.37,2013-12-20 15:11:00,
2013-12-20 07:16:00,41.5,39.9,29.84,NE,56,2.3,2.3,94,0.00,BKN,,0.01,18.0,WeatherDisplay:10.37,2013-12-20 15:16:00,
2013-12-20 07:21:00,41.7,40.1,29.84,NE,56,0.0,0.0,94,0.00,BKN,,0.01,25.0,WeatherDisplay:10.37,2013-12-20 15:21:00,
2013-12-20 07:26:00,41.9,40.3,29.84,NE,56,0.0,0.0,94,0.00,SCT,,0.01,35.0,WeatherDisplay:10.37,2013-12-20 15:26:00,
2013-12-20 07:31:00,42.2,40.6,29.84,NE,56,2.3,2.3,94,0.00,SCT,,0.01,47.0,WeatherDisplay:10.37,2013-12-20 15:31:00,
2013-12-20 07:36:00,42.5,40.9,29.84,NE,56,2.3,2.3,94,0.00,SCT,,0.01,58.0,WeatherDisplay:10.37,2013-12-20 15:36:00,
2013-12-20 07:41:00,42.8,41.2,29.83,NE,55,0.0,0.0,94,0.00,SCT,,0.01,70.0,WeatherDisplay:10.37,2013-12-20 15:41:00,
2013-12-20 07:46:00,43.4,42.1,29.84,NE,56,0.0,0.0,95,0.00,FEW,,0.01,83.0,WeatherDisplay:10.37,2013-12-20 15:46:00,
2013-12-20 07:51:00,44.0,42.7,29.84,NE,55,0.0,0.0,95,0.00,FEW,,0.01,95.0,WeatherDisplay:10.37,2013-12-20 15:51:00,
2013-12-20 07:56:00,44.7,43.4,29.84,NE,56,1.2,1.2,95,0.00,FEW,,0.01,109.0,WeatherDisplay:10.37,2013-12-20 15:56:00,
2013-12-20 08:01:00,44.9,43.6,29.85,NE,56,1.2,1.2,95,0.00,CLR,,0.01,123.0,WeatherDisplay:10.37,2013-12-20 16:01:00,
2013-12-20 08:06:00,45.1,43.5,29.85,NE,56,1.2,0.0,94,0.00,CLR,,0.01,137.0,WeatherDisplay:10.37,2013-12-20 16:06:00,
2013-12-20 08:11:00,45.2,43.6,29.85,NE,56,2.3,2.3,94,0.00,CLR,,0.01,151.0,WeatherDisplay:10.37,2013-12-20 16:11:00,
2013-12-20 08:16:00,45.5,43.9,29.86,NE,56,0.0,0.0,94,0.00,CLR,,0.01,162.0,WeatherDisplay:10.37,2013-12-20 16:16:00,
2013-12-20 08:21:00,46.0,44.4,29.85,NE,56,0.0,0.0,94,0.00,CLR,,0.01,178.0,WeatherDisplay:10.37,2013-12-20 16:21:00,
2013-12-20 08:26:00,46.5,44.9,29.86,NE,56,2.3,2.3,94,0.00,CLR,,0.01,192.0,WeatherDisplay:10.37,2013-12-20 16:26:00,
2013-12-20 08:31:00,47.0,45.4,29.86,NE,56,1.2,1.2,94,0.00,CLR,,0.01,206.0,WeatherDisplay:10.37,2013-12-20 16:31:00,
2013-12-20 08:36:00,47.9,46.3,29.87,NE,56,0.0,0.0,94,0.00,CLR,,0.01,221.0,WeatherDisplay:10.37,2013-12-20 16:36:00,
2013-12-20 08:41:00,47.9,45.7,29.87,NE,56,1.2,1.2,92,0.00,CLR,,0.01,232.0,WeatherDisplay:10.37,2013-12-20 16:41:00,
2013-12-20 08:46:00,48.1,45.6,29.87,NE,56,0.0,0.0,91,0.00,CLR,,0.01,241.0,WeatherDisplay:10.37,2013-12-20 16:46:00,
2013-12-20 08:51:00,48.6,45.8,29.87,NE,55,1.2,1.2,90,0.00,CLR,,0.01,253.0,WeatherDisplay:10.37,2013-12-20 16:51:00,
2013-12-20 08:56:00,49.1,46.0,29.87,NE,55,0.0,0.0,89,0.00,CLR,,0.01,265.0,WeatherDisplay:10.37,2013-12-20 16:56:00,
2013-12-20 09:01:00,49.7,46.6,29.87,NE,55,0.0,0.0,89,0.00,CLR,,0.01,276.0,WeatherDisplay:10.37,2013-12-20 17:01:00,
2013-12-20 09:06:00,50.8,47.4,29.88,NE,55,1.0,0.0,88,0.00,CLR,,0.01,301.0,WeatherDisplay:10.37,2013-12-20 17:06:00,
2013-12-20 09:11:00,51.4,47.0,29.88,NE,56,2.3,2.3,85,0.00,CLR,,0.01,313.0,WeatherDisplay:10.37,2013-12-20 17:11:00,
2013-12-20 09:16:00,51.9,46.9,29.88,NE,56,2.3,0.0,83,0.00,CLR,,0.01,322.0,WeatherDisplay:10.37,2013-12-20 17:16:00,
2013-12-20 09:21:00,52.4,47.1,29.88,NE,56,1.2,1.2,82,0.00,CLR,,0.01,334.0,WeatherDisplay:10.37,2013-12-20 17:21:00,
2013-12-20 09:26:00,52.8,46.8,29.88,NE,56,3.5,3.5,80,0.00,CLR,,0.01,348.0,WeatherDisplay:10.37,2013-12-20 17:26:00,
2013-12-20 09:31:00,53.0,46.7,29.88,NE,49,3.5,3.5,79,0.00,CLR,,0.01,360.0,WeatherDisplay:10.37,2013-12-20 17:31:00,
2013-12-20 09:36:00,53.0,46.7,29.88,NE,49,1.2,1.2,79,0.00,CLR,,0.01,371.0,WeatherDisplay:10.37,2013-12-20 17:36:00,
2013-12-20 09:41:00,53.3,47.0,29.89,NE,49,3.5,3.5,79,0.00,CLR,,0.01,378.0,WeatherDisplay:10.37,2013-12-20 17:41:00,
2013-12-20 09:46:00,53.8,47.4,29.89,NE,49,1.2,1.2,79,0.00,CLR,,0.01,392.0,WeatherDisplay:10.37,2013-12-20 17:46:00,
2013-12-20 09:51:00,54.6,47.5,29.89,NE,49,2.3,2.3,77,0.00,CLR,,0.01,399.0,WeatherDisplay:10.37,2013-12-20 17:51:00,
2013-12-20 09:56:00,54.9,47.5,29.88,NE,49,1.2,1.2,76,0.00,CLR,,0.01,408.0,WeatherDisplay:10.37,2013-12-20 17:56:00,
2013-12-20 10:01:00,55.3,47.9,29.88,NE,49,2.3,0.0,76,0.00,CLR,,0.01,417.0,WeatherDisplay:10.37,2013-12-20 18:01:00,
2013-12-20 10:06:00,55.8,48.0,29.88,NE,49,1.2,1.2,75,0.00,CLR,,0.01,427.0,WeatherDisplay:10.37,2013-12-20 18:06:00,
2013-12-20 10:11:00,56.4,48.2,29.87,NE,49,2.3,2.3,74,0.00,CLR,,0.01,436.0,WeatherDisplay:10.37,2013-12-20 18:11:00,
2013-12-20 10:16:00,56.4,48.2,29.88,SE,124,8.1,8.1,74,0.00,CLR,,0.01,443.0,WeatherDisplay:10.37,2013-12-20 18:16:00,
2013-12-20 10:21:00,56.5,48.3,29.88,SE,130,8.1,8.1,74,0.00,CLR,,0.01,452.0,WeatherDisplay:10.37,2013-12-20 18:21:00,
2013-12-20 10:26:00,56.6,48.4,29.88,SE,130,3.5,3.5,74,0.00,CLR,,0.01,455.0,WeatherDisplay:10.37,2013-12-20 18:26:00,
2013-12-20 10:31:00,56.8,48.6,29.88,SE,137,2.3,2.3,74,0.00,CLR,,0.01,468.0,WeatherDisplay:10.37,2013-12-20 18:31:00,
2013-12-20 10:36:00,56.8,48.2,29.88,SSE,153,3.5,3.5,73,0.00,CLR,,0.01,471.0,WeatherDisplay:10.37,2013-12-20 18:36:00,
2013-12-20 10:41:00,57.0,48.1,29.88,SSE,160,3.5,3.5,72,0.00,CLR,,0.01,475.0,WeatherDisplay:10.37,2013-12-20 18:41:00,
2013-12-20 10:46:00,57.1,48.2,29.88,SSE,160,1.2,1.2,72,0.00,CLR,,0.01,482.0,WeatherDisplay:10.37,2013-12-20 18:46:00,
2013-12-20 10:51:00,57.2,47.9,29.88,South,169,2.0,2.0,71,0.00,CLR,,0.01,483.0,WeatherDisplay:10.37,2013-12-20 18:51:00,
2013-12-20 10:56:00,57.6,48.3,29.88,SSE,168,2.0,2.0,71,0.00,CLR,,0.01,492.0,WeatherDisplay:10.37,2013-12-20 18:56:00,
2013-12-20 11:01:00,58.1,48.0,29.88,SSE,167,3.5,3.5,69,0.00,CLR,,0.01,494.0,WeatherDisplay:10.37,2013-12-20 19:01:00,
2013-12-20 11:06:00,58.4,48.3,29.87,South,169,4.0,4.0,69,0.00,CLR,,0.01,499.0,WeatherDisplay:10.37,2013-12-20 19:06:00,
2013-12-20 11:11:00,58.7,47.8,29.87,South,175,3.5,3.5,67,0.00,CLR,,0.01,504.0,WeatherDisplay:10.37,2013-12-20 19:11:00,
2013-12-20 11:16:00,58.5,46.8,29.87,South,176,2.3,2.3,65,0.00,CLR,,0.01,508.0,WeatherDisplay:10.37,2013-12-20 19:16:00,
2013-12-20 11:21:00,58.6,47.3,29.87,South,176,0.0,0.1,66,0.00,CLR,,0.01,508.0,WeatherDisplay:10.37,2013-12-20 19:21:00,
2013-12-20 11:26:00,59.0,47.2,29.86,SSE,148,6.9,6.9,65,0.00,CLR,,0.01,497.0,WeatherDisplay:10.37,2013-12-20 19:26:00,
2013-12-20 11:31:00,58.9,46.7,29.86,SSE,148,2.3,2.3,64,0.00,CLR,,0.01,497.0,WeatherDisplay:10.37,2013-12-20 19:31:00,
2013-12-20 11:33:00,58.9,47.2,29.86,SSE,150,3.5,3.5,65,0.00,CLR,,0.01,487.0,WeatherDisplay:10.37,2013-12-20 19:33:00,
2013-12-20 11:38:00,58.9,47.6,29.86,South,182,3.5,3.5,66,0.00,CLR,,0.01,512.0,WeatherDisplay:10.37,2013-12-20 19:38:00,
2013-12-20 11:43:00,59.1,47.3,29.86,SSW,194,4.6,4.6,65,0.00,CLR,,0.01,501.0,WeatherDisplay:10.37,2013-12-20 19:43:00,
2013-12-20 11:48:00,58.9,48.0,29.86,SSW,194,4.6,4.6,67,0.00,CLR,,0.01,508.0,WeatherDisplay:10.37,2013-12-20 19:48:00,
2013-12-20 11:53:00,59.0,48.1,29.85,SSW,194,2.3,2.3,67,0.00,CLR,,0.01,515.0,WeatherDisplay:10.37,2013-12-20 19:53:00,
2013-12-20 11:58:00,59.3,47.9,29.85,SSW,194,3.5,3.5,66,0.00,CLR,,0.01,515.0,WeatherDisplay:10.37,2013-12-20 19:58:00,
2013-12-20 12:03:00,59.6,48.2,29.85,SSE,167,4.6,4.6,66,0.00,CLR,,0.01,508.0,WeatherDisplay:10.37,2013-12-20 20:03:00,
2013-12-20 12:08:00,59.6,48.2,29.85,SSE,167,3.5,3.5,66,0.00,CLR,,0.01,512.0,WeatherDisplay:10.37,2013-12-20 20:08:00,
2013-12-20 12:13:00,60.0,48.2,29.85,SSE,167,3.5,3.5,65,0.00,CLR,,0.01,510.0,WeatherDisplay:10.37,2013-12-20 20:13:00,
2013-12-20 12:18:00,60.2,48.4,29.85,SSE,167,3.5,3.5,65,0.00,CLR,,0.01,508.0,WeatherDisplay:10.37,2013-12-20 20:18:00,
2013-12-20 12:23:00,60.2,48.0,29.85,SSE,163,3.5,0.0,64,0.00,CLR,,0.01,506.0,WeatherDisplay:10.37,2013-12-20 20:23:00,
2013-12-20 12:28:00,60.3,47.6,29.85,SSE,150,4.6,4.6,63,0.00,CLR,,0.01,497.0,WeatherDisplay:10.37,2013-12-20 20:28:00,
2013-12-20 12:33:00,60.1,47.0,29.85,SSE,150,3.5,3.5,62,0.00,CLR,,0.01,496.0,WeatherDisplay:10.37,2013-12-20 20:33:00,
2013-12-20 12:38:00,60.5,47.8,29.85,SSE,150,3.5,3.5,63,0.00,CLR,,0.01,494.0,WeatherDisplay:10.37,2013-12-20 20:38:00,
2013-12-20 12:43:00,61.0,47.9,29.85,SSE,159,3.5,3.5,62,0.00,CLR,,0.01,492.0,WeatherDisplay:10.37,2013-12-20 20:43:00,
2013-12-20 12:48:00,60.9,47.4,29.85,South,170,4.0,4.0,61,0.00,CLR,,0.01,483.0,WeatherDisplay:10.37,2013-12-20 20:48:00,
2013-12-20 12:53:00,60.8,47.7,29.84,SSE,163,2.3,2.3,62,0.00,CLR,,0.01,473.0,WeatherDisplay:10.37,2013-12-20 20:53:00,
2013-12-20 12:58:00,60.9,46.9,29.84,South,181,3.5,3.5,60,0.00,FEW,,0.01,338.0,WeatherDisplay:10.37,2013-12-20 20:58:00,
2013-12-20 13:03:00,61.0,47.0,29.84,South,182,2.3,2.3,60,0.00,CLR,,0.01,475.0,WeatherDisplay:10.37,2013-12-20 21:03:00,
2013-12-20 13:08:00,61.5,47.9,29.84,South,186,1.2,1.2,61,0.00,CLR,,0.01,462.0,WeatherDisplay:10.37,2013-12-20 21:08:00,
2013-12-20 13:13:00,61.8,47.3,29.84,WSW,252,7.0,7.0,59,0.00,CLR,,0.01,452.0,WeatherDisplay:10.37,2013-12-20 21:13:00,
2013-12-20 13:18:00,61.1,46.7,29.84,West,275,3.5,3.5,59,0.00,CLR,,0.01,443.0,WeatherDisplay:10.37,2013-12-20 21:18:00,
2013-12-20 13:23:00,61.4,47.8,29.84,West,267,4.6,4.6,61,0.00,CLR,,0.01,434.0,WeatherDisplay:10.37,2013-12-20 21:23:00,
2013-12-20 13:28:00,61.5,48.4,29.84,SSW,192,5.0,5.0,62,0.00,CLR,,0.01,420.0,WeatherDisplay:10.37,2013-12-20 21:28:00,
2013-12-20 13:33:00,62.0,49.3,29.84,SSW,211,4.0,4.0,63,0.00,CLR,,0.01,427.0,WeatherDisplay:10.37,2013-12-20 21:33:00,
2013-12-20 13:38:00,62.4,48.8,29.84,SSW,212,4.6,4.6,61,0.00,CLR,,0.01,424.0,WeatherDisplay:10.37,2013-12-20 21:38:00,
2013-12-20 13:43:00,62.4,48.3,29.83,SSW,199,5.0,5.0,60,0.00,CLR,,0.01,413.0,WeatherDisplay:10.37,2013-12-20 21:43:00,
2013-12-20 13:48:00,62.2,48.1,29.84,SSW,200,6.9,6.9,60,0.00,CLR,,0.01,403.0,WeatherDisplay:10.37,2013-12-20 21:48:00,
2013-12-20 13:53:00,62.2,47.7,29.84,SSW,200,3.5,3.5,59,0.00,CLR,,0.01,387.0,WeatherDisplay:10.37,2013-12-20 21:53:00,
2013-12-20 13:58:00,62.6,48.1,29.84,SW,226,4.6,4.6,59,0.00,CLR,,0.01,388.0,WeatherDisplay:10.37,2013-12-20 21:58:00,
2013-12-20 14:03:00,62.7,49.1,29.84,SW,222,5.0,5.0,61,0.00,CLR,,0.01,381.0,WeatherDisplay:10.37,2013-12-20 22:03:00,
2013-12-20 14:08:00,63.2,49.1,29.84,SSW,211,5.0,5.0,60,0.00,CLR,,0.01,371.0,WeatherDisplay:10.37,2013-12-20 22:08:00,
2013-12-20 14:13:00,63.1,48.5,29.84,SSW,192,5.8,5.8,59,0.00,CLR,,0.01,353.0,WeatherDisplay:10.37,2013-12-20 22:13:00,
2013-12-20 14:18:00,62.8,48.7,29.84,South,182,5.8,5.8,60,0.00,CLR,,0.01,341.0,WeatherDisplay:10.37,2013-12-20 22:18:00,
2013-12-20 14:23:00,62.8,48.7,29.84,South,169,3.5,3.5,60,0.00,CLR,,0.01,336.0,WeatherDisplay:10.37,2013-12-20 22:23:00,
2013-12-20 14:28:00,62.9,49.2,29.84,South,171,5.0,5.0,61,0.00,CLR,,0.01,323.0,WeatherDisplay:10.37,2013-12-20 22:28:00,
2013-12-20 14:33:00,62.9,49.7,29.84,South,187,5.8,5.8,62,0.00,CLR,,0.01,306.0,WeatherDisplay:10.37,2013-12-20 22:33:00,
2013-12-20 14:38:00,62.5,49.3,29.84,SW,234,4.6,4.6,62,0.00,CLR,,0.01,295.0,WeatherDisplay:10.37,2013-12-20 22:38:00,
2013-12-20 14:43:00,62.3,49.5,29.84,SSW,202,8.1,8.1,63,0.00,CLR,,0.01,288.0,WeatherDisplay:10.37,2013-12-20 22:43:00,
2013-12-20 14:48:00,62.3,49.5,29.84,South,188,5.8,5.8,63,0.00,CLR,,0.01,278.0,WeatherDisplay:10.37,2013-12-20 22:48:00,
2013-12-20 14:53:00,62.3,50.4,29.84,SSW,199,6.9,6.9,65,0.00,CLR,,0.01,271.0,WeatherDisplay:10.37,2013-12-20 22:53:00,
2013-12-20 14:58:00,62.2,50.3,29.84,South,170,5.8,5.8,65,0.00,CLR,,0.01,255.0,WeatherDisplay:10.37,2013-12-20 22:58:00,
2013-12-20 15:03:00,61.6,50.1,29.84,South,171,4.6,4.6,66,0.00,CLR,,0.01,241.0,WeatherDisplay:10.37,2013-12-20 23:03:00,
2013-12-20 15:08:00,61.6,50.1,29.84,South,180,3.5,3.5,66,0.00,CLR,,0.01,223.0,WeatherDisplay:10.37,2013-12-20 23:08:00,
2013-12-20 15:13:00,61.9,50.4,29.84,South,179,4.0,4.0,66,0.00,CLR,,0.01,213.0,WeatherDisplay:10.37,2013-12-20 23:13:00,
2013-12-20 15:18:00,61.8,50.3,29.84,SSW,200,6.9,6.9,66,0.00,CLR,,0.01,197.0,WeatherDisplay:10.37,2013-12-20 23:18:00,
2013-12-20 15:23:00,61.3,50.2,29.84,South,175,6.9,6.9,67,0.00,CLR,,0.01,176.0,WeatherDisplay:10.37,2013-12-20 23:23:00,
2013-12-20 15:28:00,61.0,50.4,29.84,SSW,196,7.0,7.0,68,0.00,CLR,,0.01,167.0,WeatherDisplay:10.37,2013-12-20 23:28:00,
2013-12-20 15:33:00,61.1,50.5,29.84,South,190,6.9,6.9,68,0.00,CLR,,0.01,151.0,WeatherDisplay:10.37,2013-12-20 23:33:00,
2013-12-20 15:38:00,60.9,50.3,29.84,SSE,167,6.9,6.9,68,0.00,FEW,,0.01,107.0,WeatherDisplay:10.37,2013-12-20 23:38:00,
2013-12-20 15:43:00,60.7,50.1,29.84,SSW,194,4.6,4.6,68,0.00,CLR,,0.01,116.0,WeatherDisplay:10.37,2013-12-20 23:43:00,
2013-12-20 15:48:00,60.6,50.0,29.84,SSE,166,5.0,5.0,68,0.00,CLR,,0.01,102.0,WeatherDisplay:10.37,2013-12-20 23:48:00,
2013-12-20 15:53:00,60.5,50.3,29.84,South,176,5.0,5.0,69,0.00,FEW,,0.01,88.0,WeatherDisplay:10.37,2013-12-20 23:53:00,
2013-12-20 15:58:00,60.5,49.9,29.84,South,175,6.9,6.9,68,0.00,BKN,,0.01,46.0,WeatherDisplay:10.37,2013-12-20 23:58:00,
2013-12-20 16:03:00,60.2,50.0,29.84,South,173,5.8,5.8,69,0.00,SCT,,0.01,60.0,WeatherDisplay:10.37,2013-12-21 00:03:00,
2013-12-20 16:08:00,60.1,49.9,29.84,South,182,6.0,6.0,69,0.00,SCT,,0.01,47.0,WeatherDisplay:10.37,2013-12-21 00:08:00,
2013-12-20 16:13:00,60.1,50.3,29.84,South,189,5.8,5.8,70,0.00,BKN,,0.01,25.0,WeatherDisplay:10.37,2013-12-21 00:13:00,
2013-12-20 16:18:00,59.9,50.1,29.84,South,177,5.8,5.8,70,0.00,BKN,,0.01,21.0,WeatherDisplay:10.37,2013-12-21 00:18:00,
2013-12-20 16:23:00,59.7,50.3,29.85,South,180,5.0,5.0,71,0.00,BKN,,0.01,19.0,WeatherDisplay:10.37,2013-12-21 00:23:00,
2013-12-20 16:28:00,59.5,50.1,29.85,South,190,4.6,4.6,71,0.00,BKN,,0.01,16.0,WeatherDisplay:10.37,2013-12-21 00:28:00,
2013-12-20 16:33:00,59.3,50.3,29.85,South,188,4.6,4.6,72,0.00,SCT,,0.01,12.0,WeatherDisplay:10.37,2013-12-21 00:33:00,
2013-12-20 16:38:00,59.1,50.1,29.85,SSW,193,4.6,4.6,72,0.00,CLR,,0.01,11.0,WeatherDisplay:10.37,2013-12-21 00:38:00,
2013-12-20 16:43:00,58.8,50.2,29.85,SSW,194,4.6,4.6,73,0.00,CLR,,0.01,7.0,WeatherDisplay:10.37,2013-12-21 00:43:00,
2013-12-20 16:48:00,58.6,50.0,29.85,SSW,195,6.9,6.9,73,0.00,CLR,,0.01,5.0,WeatherDisplay:10.37,2013-12-21 00:48:00,
2013-12-20 16:53:00,58.4,50.1,29.85,SSW,200,7.0,7.0,74,0.00,CLR,,0.01,0.0,WeatherDisplay:10.37,2013-12-21 00:53:00,
2013-12-20 16:58:00,58.2,50.3,29.85,SSW,201,5.8,5.8,75,0.00,CLR,,0.01,0.0,WeatherDisplay:10.37,2013-12-21 00:58:00,
2013-12-20 17:03:00,58.0,50.5,29.85,SSW,201,4.0,4.0,76,0.00,CLR,,0.01,0.0,WeatherDisplay:10.37,2013-12-21 01:03:00,
2013-12-20 17:08:00,57.8,50.3,29.86,SSW,203,6.0,6.0,76,0.00,CLR,,0.01,0.0,WeatherDisplay:10.37,2013-12-21 01:08:00,
2013-12-20 17:13:00,57.6,50.1,29.86,SSW,203,3.5,3.5,76,0.00,CLR,,0.01,0.0,WeatherDisplay:10.37,2013-12-21 01:13:00,
2013-12-20 17:18:00,57.4,50.2,29.86,SSW,204,5.8,5.8,77,0.00,CLR,,0.01,0.0,WeatherDisplay:10.37,2013-12-21 01:18:00,
2013-12-20 17:23:00,57.2,50.1,29.86,SSW,204,3.5,3.5,77,0.00,CLR,,0.01,0.0,WeatherDisplay:10.37,2013-12-21 01:23:00,
2013-12-20 17:28:00,57.0,49.9,29.86,SSW,204,7.0,7.0,77,0.00,CLR,,0.01,0.0,WeatherDisplay:10.37,2013-12-21 01:28:00,
2013-12-20 17:33:00,56.9,49.8,29.86,SSW,204,3.5,3.5,77,0.00,CLR,,0.01,0.0,WeatherDisplay:10.37,2013-12-21 01:33:00,
2013-12-20 17:38:00,56.7,49.6,29.86,SSW,204,3.0,3.0,77,0.00,CLR,,0.01,0.0,WeatherDisplay:10.37,2013-12-21 01:38:00,
2013-12-20 17:43:00,56.6,49.5,29.86,SSW,204,3.5,3.5,77,0.00,CLR,,0.01,0.0,WeatherDisplay:10.37,2013-12-21 01:43:00,
2013-12-20 17:48:00,56.6,49.5,29.87,SSW,204,3.5,3.5,77,0.00,CLR,,0.01,0.0,WeatherDisplay:10.37,2013-12-21 01:48:00,
2013-12-20 17:53:00,56.4,49.3,29.87,SSW,204,1.0,1.0,77,0.00,CLR,,0.01,0.0,WeatherDisplay:10.37,2013-12-21 01:53:00,
2013-12-20 17:58:00,56.3,49.5,29.87,SSW,204,2.3,2.3,78,0.00,CLR,,0.01,0.0,WeatherDisplay:10.37,2013-12-21 01:58:00,
2013-12-20 18:03:00,56.2,49.4,29.87,SSW,204,2.3,2.3,78,0.00,CLR,,0.01,0.0,WeatherDisplay:10.37,2013-12-21 02:03:00,
2013-12-20 18:08:00,56.2,49.8,29.87,SSW,204,1.2,0.0,79,0.00,CLR,,0.01,0.0,WeatherDisplay:10.37,2013-12-21 02:08:00,
2013-12-20 18:13:00,56.0,49.6,29.87,SSW,204,0.0,0.0,79,0.00,CLR,,0.01,0.0,WeatherDisplay:10.37,2013-12-21 02:13:00,
2013-12-20 18:18:00,55.9,49.5,29.88,SSW,204,0.0,0.0,79,0.00,CLR,,0.01,0.0,WeatherDisplay:10.37,2013-12-21 02:18:00,
2013-12-20 18:23:00,55.7,49.3,29.88,SSW,204,0.0,0.0,79,0.00,CLR,,0.01,0.0,WeatherDisplay:10.37,2013-12-21 02:23:00,
2013-12-20 18:28:00,55.4,49.3,29.89,SSW,204,0.0,0.0,80,0.00,CLR,,0.01,0.0,WeatherDisplay:10.37,2013-12-21 02:28:00,
2013-12-20 18:33:00,55.2,49.1,29.89,SSW,204,0.0,0.0,80,0.00,CLR,,0.01,0.0,WeatherDisplay:10.37,2013-12-21 02:33:00,
2013-12-20 18:38:00,54.9,48.8,29.89,SSW,204,1.0,0.0,80,0.00,CLR,,0.01,0.0,WeatherDisplay:10.37,2013-12-21 02:38:00,
2013-12-20 18:43:00,54.6,48.9,29.89,SSW,204,0.0,0.0,81,0.00,CLR,,0.01,0.0,WeatherDisplay:10.37,2013-12-21 02:43:00,
2013-12-20 18:48:00,54.2,48.8,29.89,SSW,204,0.0,0.0,82,0.00,CLR,,0.01,0.0,WeatherDisplay:10.37,2013-12-21 02:48:00,
2013-12-20 18:53:00,54.0,48.6,29.89,SSW,204,1.0,1.0,82,0.00,CLR,,0.01,0.0,WeatherDisplay:10.37,2013-12-21 02:53:00,
2013-12-20 18:58:00,53.7,48.7,29.90,SSW,204,1.2,1.2,83,0.00,CLR,,0.01,0.0,WeatherDisplay:10.37,2013-12-21 02:58:00,
2013-12-20 19:03:00,53.5,48.5,29.90,SSW,204,0.0,0.0,83,0.00,CLR,,0.01,0.0,WeatherDisplay:10.37,2013-12-21 03:03:00,
2013-12-20 19:08:00,53.4,48.7,29.90,SSW,204,0.0,0.0,84,0.00,CLR,,0.01,0.0,WeatherDisplay:10.37,2013-12-21 03:08:00,
2013-12-20 19:13:00,53.2,48.5,29.89,SSW,204,0.0,0.0,84,0.00,CLR,,0.01,0.0,WeatherDisplay:10.37,2013-12-21 03:13:00,
2013-12-20 19:18:00,53.1,48.4,29.89,SSW,204,0.0,0.0,84,0.00,CLR,,0.01,0.0,WeatherDisplay:10.37,2013-12-21 03:18:00,
2013-12-20 19:23:00,52.9,48.5,29.90,SSW,204,1.2,0.0,85,0.00,CLR,,0.01,0.0,WeatherDisplay:10.37,2013-12-21 03:23:00,
2013-12-20 19:28:00,52.8,48.4,29.90,SSW,204,2.3,2.3,85,0.00,CLR,,0.01,0.0,WeatherDisplay:10.37,2013-12-21 03:28:00,
2013-12-20 19:33:00,52.7,48.3,29.91,SSW,204,1.2,1.2,85,0.00,CLR,,0.01,0.0,WeatherDisplay:10.37,2013-12-21 03:33:00,
2013-12-20 19:38:00,52.6,48.2,29.91,SSW,204,0.0,0.0,85,0.00,CLR,,0.01,0.0,WeatherDisplay:10.37,2013-12-21 03:38:00,
2013-12-20 19:43:00,52.5,48.4,29.91,SSW,204,1.2,1.2,86,0.00,CLR,,0.01,0.0,WeatherDisplay:10.37,2013-12-21 03:43:00,
2013-12-20 19:48:00,52.4,48.3,29.91,SSW,204,2.0,2.0,86,0.00,CLR,,0.01,0.0,WeatherDisplay:10.37,2013-12-21 03:48:00,
2013-12-20 19:53:00,52.3,48.2,29.91,SSW,204,1.2,1.2,86,0.00,CLR,,0.01,0.0,WeatherDisplay:10.37,2013-12-21 03:53:00,
2013-12-20 19:58:00,52.2,48.1,29.91,SSW,204,1.2,0.0,86,0.00,CLR,,0.01,0.0,WeatherDisplay:10.37,2013-12-21 03:58:00,
2013-12-20 20:03:00,52.1,48.0,29.91,SSW,204,0.0,0.0,86,0.00,CLR,,0.01,0.0,WeatherDisplay:10.37,2013-12-21 04:03:00,
2013-12-20 20:08:00,52.0,47.9,29.91,SSW,204,0.0,0.0,86,0.00,CLR,,0.01,0.0,WeatherDisplay:10.37,2013-12-21 04:08:00,
2013-12-20 20:13:00,51.8,47.7,29.91,SSW,204,0.0,0.0,86,0.00,CLR,,0.01,0.0,WeatherDisplay:10.37,2013-12-21 04:13:00,
2013-12-20 20:18:00,51.6,47.5,29.91,SSW,204,1.2,1.2,86,0.00,CLR,,0.01,0.0,WeatherDisplay:10.37,2013-12-21 04:18:00,
2013-12-20 20:23:00,51.4,47.7,29.90,SSW,204,0.0,0.0,87,0.00,CLR,,0.01,0.0,WeatherDisplay:10.37,2013-12-21 04:23:00,
2013-12-20 20:28:00,51.2,47.5,29.90,SSW,204,0.0,0.0,87,0.00,CLR,,0.01,0.0,WeatherDisplay:10.37,2013-12-21 04:28:00,
2013-12-20 20:33:00,51.1,47.4,29.90,SSW,204,1.2,1.2,87,0.00,CLR,,0.01,0.0,WeatherDisplay:10.37,2013-12-21 04:33:00,
2013-12-20 20:38:00,51.6,48.5,29.90,SSW,204,1.2,0.0,89,0.00,CLR,,0.01,0.0,WeatherDisplay:10.37,2013-12-21 04:38:00,
2013-12-20 20:43:00,51.7,48.3,29.91,SSW,204,1.0,1.0,88,0.00,CLR,,0.01,0.0,WeatherDisplay:10.37,2013-12-21 04:43:00,
2013-12-20 20:48:00,51.3,47.6,29.91,SSW,204,0.0,0.0,87,0.00,CLR,,0.01,0.0,WeatherDisplay:10.37,2013-12-21 04:48:00,
2013-12-20 20:53:00,51.0,47.3,29.91,SSW,204,0.0,0.0,87,0.00,CLR,,0.01,0.0,WeatherDisplay:10.37,2013-12-21 04:53:00,
2013-12-20 20:58:00,50.8,47.4,29.92,SSW,204,0.0,0.0,88,0.00,CLR,,0.01,0.0,WeatherDisplay:10.37,2013-12-21 04:58:00,
2013-12-20 21:01:00,50.7,47.3,29.92,SSW,204,2.3,2.3,88,0.00,CLR,,0.01,0.0,WeatherDisplay:10.37,2013-12-21 05:01:00,
2013-12-20 21:02:00,50.7,47.3,29.92,SSW,204,2.3,2.3,88,0.00,CLR,,0.01,0.0,WeatherDisplay:10.37,2013-12-21 05:02:00,
2013-12-20 21:04:00,50.7,47.3,29.92,SSW,204,0.0,0.0,88,0.00,CLR,,0.01,0.0,WeatherDisplay:10.37,2013-12-21 05:04:00,
2013-12-20 21:05:00,50.6,47.2,29.92,SSW,204,0.0,0.0,88,0.00,CLR,,0.01,0.0,WeatherDisplay:10.37,2013-12-21 05:05:00,
2013-12-20 21:10:00,50.5,47.1,29.92,SSW,204,1.2,1.2,88,0.00,CLR,,0.01,0.0,WeatherDisplay:10.37,2013-12-21 05:10:00,
2013-12-20 21:15:00,50.4,47.0,29.92,SSW,204,1.2,1.2,88,0.00,CLR,,0.01,0.0,WeatherDisplay:10.37,2013-12-21 05:15:00,
2013-12-20 21:20:00,50.3,46.9,29.92,SSW,204,1.2,1.2,88,0.00,CLR,,0.01,0.0,WeatherDisplay:10.37,2013-12-21 05:20:00,
2013-12-20 21:25:00,50.2,46.8,29.92,SSW,204,0.0,0.0,88,0.00,CLR,,0.01,0.0,WeatherDisplay:10.37,2013-12-21 05:25:00,
2013-12-20 21:30:00,50.1,46.7,29.92,SSW,204,0.0,0.0,88,0.00,CLR,,0.01,0.0,WeatherDisplay:10.37,2013-12-21 05:30:00,
2013-12-20 21:35:00,49.9,46.5,29.92,SSW,204,0.0,0.0,88,0.00,CLR,,0.01,0.0,WeatherDisplay:10.37,2013-12-21 05:35:00,
2013-12-20 21:40:00,49.7,46.3,29.92,SSW,204,0.0,0.0,88,0.00,CLR,,0.01,0.0,WeatherDisplay:10.37,2013-12-21 05:40:00,
2013-12-20 21:45:00,49.5,46.1,29.92,SSW,204,0.0,0.0,88,0.00,CLR,,0.01,0.0,WeatherDisplay:10.37,2013-12-21 05:45:00,
2013-12-20 21:50:00,49.5,46.4,29.92,SSW,204,0.0,0.0,89,0.00,CLR,,0.01,0.0,WeatherDisplay:10.37,2013-12-21 05:50:00,
2013-12-20 21:55:00,49.4,46.3,29.92,SSW,204,0.0,0.0,89,0.00,CLR,,0.01,0.0,WeatherDisplay:10.37,2013-12-21 05:55:00,
2013-12-20 22:00:00,49.2,46.1,29.93,SSW,204,0.0,0.0,89,0.00,CLR,,0.01,0.0,WeatherDisplay:10.37,2013-12-21 06:00:00,
2013-12-20 22:05:00,49.1,46.0,29.93,SSW,204,2.3,2.3,89,0.00,CLR,,0.01,0.0,WeatherDisplay:10.37,2013-12-21 06:05:00,
2013-12-20 22:10:00,49.2,46.4,29.94,SSW,204,2.3,2.3,90,0.00,CLR,,0.01,0.0,WeatherDisplay:10.37,2013-12-21 06:10:00,
2013-12-20 22:15:00,49.2,46.4,29.93,SSW,204,2.3,2.3,90,0.00,CLR,,0.01,0.0,WeatherDisplay:10.37,2013-12-21 06:15:00,
2013-12-20 22:20:00,49.1,46.3,29.93,SSW,204,1.2,0.0,90,0.00,CLR,,0.01,0.0,WeatherDisplay:10.37,2013-12-21 06:20:00,
2013-12-20 22:25:00,49.0,46.2,29.94,SSW,204,2.3,2.3,90,0.00,CLR,,0.01,0.0,WeatherDisplay:10.37,2013-12-21 06:25:00,
2013-12-20 22:30:00,49.0,46.2,29.94,SSW,204,1.2,1.2,90,0.00,CLR,,0.01,0.0,WeatherDisplay:10.37,2013-12-21 06:30:00,
2013-12-20 22:34:00,48.9,46.1,29.94,SSW,204,1.2,1.2,90,0.00,CLR,,0.01,0.0,WeatherDisplay:10.37,2013-12-21 06:34:00,
2013-12-20 22:39:00,48.9,46.1,29.94,SSW,204,1.2,1.2,90,0.00,CLR,,0.01,0.0,WeatherDisplay:10.37,2013-12-21 06:39:00,
2013-12-20 22:44:00,48.8,46.0,29.94,SSW,204,1.2,0.0,90,0.00,CLR,,0.01,0.0,WeatherDisplay:10.37,2013-12-21 06:44:00,
2013-12-20 22:49:00,48.8,46.0,29.94,SSW,204,1.2,0.0,90,0.00,CLR,,0.01,0.0,WeatherDisplay:10.37,2013-12-21 06:49:00,
2013-12-20 22:54:00,48.8,46.0,29.94,SSW,204,2.3,2.3,90,0.00,CLR,,0.01,0.0,WeatherDisplay:10.37,2013-12-21 06:54:00,
2013-12-20 22:59:00,48.8,46.0,29.94,SSW,204,1.2,1.2,90,0.00,CLR,,0.01,0.0,WeatherDisplay:10.37,2013-12-21 06:59:00,
2013-12-20 23:04:00,48.7,45.9,29.95,SSW,204,2.3,2.3,90,0.00,CLR,,0.01,0.0,WeatherDisplay:10.37,2013-12-21 07:04:00,
2013-12-20 23:09:00,48.6,45.8,29.95,SSW,204,2.3,2.3,90,0.00,CLR,,0.01,0.0,WeatherDisplay:10.37,2013-12-21 07:09:00,
2013-12-20 23:14:00,48.6,46.1,29.94,SSW,204,1.2,1.2,91,0.00,CLR,,0.01,0.0,WeatherDisplay:10.37,2013-12-21 07:14:00,
2013-12-20 23:19:00,48.7,46.2,29.94,SSW,204,1.2,1.2,91,0.00,CLR,,0.01,0.0,WeatherDisplay:10.37,2013-12-21 07:19:00,
2013-12-20 23:24:00,48.6,46.1,29.94,SSW,204,0.0,0.0,91,0.00,CLR,,0.01,0.0,WeatherDisplay:10.37,2013-12-21 07:24:00,
2013-12-20 23:29:00,48.6,46.1,29.94,SSW,204,0.0,0.0,91,0.00,CLR,,0.01,0.0,WeatherDisplay:10.37,2013-12-21 07:29:00,
2013-12-20 23:34:00,48.4,45.6,29.94,SSW,204,0.0,0.0,90,0.00,CLR,,0.01,0.0,WeatherDisplay:10.37,2013-12-21 07:34:00,
2013-12-20 23:39:00,48.3,45.5,29.94,SSW,204,0.0,0.0,90,0.00,CLR,,0.01,0.0,WeatherDisplay:10.37,2013-12-21 07:39:00,
2013-12-20 23:44:00,48.2,45.4,29.93,SSW,204,0.0,0.0,90,0.00,CLR,,0.01,0.0,WeatherDisplay:10.37,2013-12-21 07:44:00,
2013-12-20 23:49:00,48.0,45.2,29.93,SSW,204,0.0,0.0,90,0.00,CLR,,0.01,0.0,WeatherDisplay:10.37,2013-12-21 07:49:00,
2013-12-20 23:54:00,47.9,45.4,29.94,SSW,204,1.2,0.0,91,0.00,CLR,,0.01,0.0,WeatherDisplay:10.37,2013-12-21 07:54:00,
2013-12-20 23:59:00,47.7,45.2,29.94,SSW,204,0.0,0.0,91,0.00,CLR,,0.01,0.0,WeatherDisplay:10.37,2013-12-21 07:59:00,